Dades meteomassalio
Diari Summary for Agost 29, 2017 Units:  English    Metric   Both
« Previous Day
Next Day »
Diari Semanal Mensual Anual Personalitzat
  Maxima: Minima: Mijana:
Temperatura: TemperatureC °F 16.9 °F 20.6 °F
Rosada: DewpointC °F 11.5 °F 15.9 °F
Humitat: Humidity % 45 % 76 %
Velocitat del vent: WindSpeedKMH mph 0.0 mph 8.8 mph
Racha vent: WindSpeedGustKMH mph - -
Vent:- - South
Pressio: PressurehPa in 1014.8 in -
Pluja: 1.3 in    
Historical Graphs
 
 
Tabular Data for Agost 29, 2017
Time Temperature Dew Point Pressure Wind Wind Speed Wind Gust Humidity Rainfall Rate (Hourly) solar Conditions
TemperatureC °F DewpointC °F PressurehPa in Calm     Humidity % HourlyPrecipMM in SolarRadiationWatts/m^2 W/m2 Conditions
00:00 21.1 °F 18.5 °F 1017.2 in WSW 24.1 mph 24.1 mph 85 % 0.0 in 0.0 W/m2 CLR
00:05 21.0 °F 18.4 °F 1017.2 in SSW 24.1 mph 24.1 mph 85 % 0.0 in 0.0 W/m2 CLR
00:10 20.9 °F 18.3 °F 1017.2 in SW 20.9 mph 20.9 mph 85 % 0.0 in 0.0 W/m2 CLR
00:15 20.8 °F 18.2 °F 1017.2 in SW 9.3 mph 9.3 mph 85 % 0.0 in 0.0 W/m2 CLR
00:20 20.8 °F 18.2 °F 1017.2 in SSE 6.4 mph 6.4 mph 85 % 0.0 in 0.0 W/m2 CLR
00:25 20.8 °F 18.2 °F 1017.2 in Calm     85 % 0.0 in 0.0 W/m2 CLR
00:30 20.7 °F 18.1 °F 1017.2 in SSW 14.5 mph 14.5 mph 85 % 0.0 in 0.0 W/m2 CLR
00:35 20.7 °F 17.9 °F 1017.5 in SSW 24.1 mph 24.1 mph 84 % 0.0 in 0.0 W/m2 CLR
00:40 20.7 °F 18.1 °F 1017.2 in SW 24.1 mph 24.1 mph 85 % 0.0 in 0.0 W/m2 CLR
00:45 20.7 °F 18.1 °F 1017.2 in SW 20.4 mph 20.4 mph 85 % 0.0 in 0.0 W/m2 CLR
00:50 20.6 °F 17.8 °F 1017.5 in South 11.1 mph 11.1 mph 84 % 0.0 in 0.0 W/m2 CLR
00:55 20.5 °F 17.7 °F 1017.2 in SW 7.4 mph 7.4 mph 84 % 0.0 in 0.0 W/m2 CLR
01:00 20.5 °F 17.7 °F 1017.5 in SSW 5.6 mph   84 % 0.0 in 0.0 W/m2 CLR
01:05 20.4 °F 17.7 °F 1017.2 in Calm     84 % 0.0 in 0.0 W/m2 CLR
01:10 20.4 °F 17.6 °F 1017.2 in Calm     84 % 0.0 in 0.0 W/m2 CLR
01:15 20.3 °F 17.7 °F 1017.5 in Calm     85 % 0.0 in 0.0 W/m2 CLR
01:20 20.2 °F 17.6 °F 1017.5 in SSW 5.6 mph 5.6 mph 85 % 0.0 in 0.0 W/m2 CLR
01:25 20.2 °F 17.6 °F 1017.5 in South 5.6 mph 5.6 mph 85 % 0.0 in 0.0 W/m2 CLR
01:30 20.2 °F 17.6 °F 1017.5 in Calm     85 % 0.0 in 0.0 W/m2 CLR
01:35 20.1 °F 17.5 °F 1017.2 in South 5.6 mph 5.6 mph 85 % 0.0 in 0.0 W/m2 CLR
01:40 20.1 °F 17.4 °F 1017.2 in Calm     85 % 0.0 in 0.0 W/m2 CLR
01:45 20.0 °F 17.4 °F 1016.8 in Calm     85 % 0.0 in 0.0 W/m2 CLR
01:50 19.9 °F 17.3 °F 1017.2 in Calm     85 % 0.0 in 0.0 W/m2 CLR
01:55 19.9 °F 17.3 °F 1016.8 in Calm     85 % 0.0 in 0.0 W/m2 CLR
02:00 19.8 °F 17.2 °F 1016.8 in Calm     85 % 0.0 in 0.0 W/m2 CLR
02:05 19.7 °F 17.1 °F 1017.2 in Calm     85 % 0.0 in 0.0 W/m2 CLR
02:10 19.7 °F 17.3 °F 1017.2 in Calm     86 % 0.0 in 0.0 W/m2 CLR
02:15 19.6 °F 17.2 °F 1017.2 in Calm     86 % 0.0 in 0.0 W/m2 CLR
02:20 19.6 °F 17.2 °F 1017.2 in SSE 5.6 mph 5.6 mph 86 % 0.0 in 0.0 W/m2 CLR
02:25 19.4 °F 17.1 °F 1017.2 in SSE 5.6 mph 5.6 mph 86 % 0.0 in 0.0 W/m2 CLR
02:30 19.4 °F 17.0 °F 1017.2 in SSE 3.2 mph 3.2 mph 86 % 0.0 in 0.0 W/m2 CLR
02:35 19.3 °F 16.9 °F 1017.2 in South 1.6 mph 1.6 mph 86 % 0.0 in 0.0 W/m2 CLR
02:40 19.3 °F 17.1 °F 1017.2 in Calm     87 % 0.0 in 0.0 W/m2 CLR
02:45 19.2 °F 17.0 °F 1017.2 in SSE 5.6 mph 5.6 mph 87 % 0.0 in 0.0 W/m2 CLR
02:50 19.2 °F 16.9 °F 1017.2 in SSE 1.9 mph 1.9 mph 87 % 0.0 in 0.0 W/m2 CLR
02:55 19.2 °F 16.8 °F 1017.2 in SSE 1.9 mph   86 % 0.0 in 0.0 W/m2 CLR
03:00 19.1 °F 16.7 °F 1016.8 in Calm     86 % 0.0 in 0.0 W/m2 CLR
03:05 19.1 °F 16.7 °F 1017.2 in Calm     86 % 0.0 in 0.0 W/m2 CLR
03:10 19.1 °F 16.7 °F 1016.8 in South 4.8 mph 4.8 mph 86 % 0.0 in 0.0 W/m2 CLR
03:15 19.0 °F 16.6 °F 1016.8 in South 5.6 mph 5.6 mph 86 % 0.0 in 0.0 W/m2 CLR
03:20 19.0 °F 16.4 °F 1016.8 in South 3.7 mph   85 % 0.0 in 0.0 W/m2 CLR
03:25 19.0 °F 16.4 °F 1016.8 in Calm     85 % 0.0 in 0.0 W/m2 CLR
03:30 19.0 °F 16.4 °F 1016.8 in South 5.6 mph   85 % 0.0 in 0.0 W/m2 CLR
03:35 19.0 °F 16.4 °F 1016.8 in Calm     85 % 0.0 in 0.0 W/m2 CLR
03:40 18.9 °F 16.3 °F 1016.8 in Calm     85 % 0.0 in 0.0 W/m2 CLR
03:45 18.8 °F 16.3 °F 1016.8 in Calm     85 % 0.0 in 0.0 W/m2 CLR
03:50 18.7 °F 16.3 °F 1016.8 in Calm     86 % 0.0 in 0.0 W/m2 CLR
03:55 18.7 °F 16.3 °F 1016.5 in Calm     86 % 0.0 in 0.0 W/m2 CLR
04:00 18.6 °F 16.2 °F 1016.8 in Calm     86 % 0.0 in 0.0 W/m2 CLR
04:05 18.6 °F 16.2 °F 1016.5 in Calm     86 % 0.0 in 0.0 W/m2 CLR
04:10 18.5 °F 16.1 °F 1016.5 in Calm     86 % 0.0 in 0.0 W/m2 CLR
04:15 18.5 °F 16.3 °F 1016.5 in Calm     87 % 0.0 in 0.0 W/m2 CLR
04:20 18.4 °F 16.2 °F 1016.5 in Calm     87 % 0.0 in 0.0 W/m2 CLR
04:25 18.3 °F 16.1 °F 1016.1 in Calm     87 % 0.0 in 0.0 W/m2 CLR
04:30 18.2 °F 16.0 °F 1016.5 in Calm     87 % 0.0 in 0.0 W/m2 CLR
04:35 18.1 °F 16.1 °F 1016.1 in Calm     88 % 0.0 in 0.0 W/m2 CLR
04:40 18.0 °F 16.0 °F 1016.1 in Calm     88 % 0.0 in 0.0 W/m2 CLR
04:45 17.9 °F 15.9 °F 1015.8 in Calm     88 % 0.0 in 0.0 W/m2 CLR
04:50 17.9 °F 15.9 °F 1015.8 in Calm     88 % 0.0 in 0.0 W/m2 CLR
04:55 17.8 °F 15.9 °F 1016.1 in Calm     89 % 0.0 in 0.0 W/m2 CLR
05:00 17.7 °F 15.9 °F 1016.1 in Calm     89 % 0.0 in 0.0 W/m2 CLR
05:05 17.6 °F 15.8 °F 1015.8 in Calm     89 % 0.0 in 0.0 W/m2 CLR
05:11 17.6 °F 15.7 °F 1015.8 in Calm     89 % 0.0 in 0.0 W/m2 CLR
05:16 17.6 °F 15.7 °F 1016.1 in Calm     89 % 0.0 in 0.0 W/m2 CLR
05:21 17.5 °F 15.7 °F 1016.1 in Calm     89 % 0.0 in 0.0 W/m2 CLR
05:22 17.5 °F 15.7 °F 1016.1 in Calm     89 % 0.0 in 0.0 W/m2 CLR
05:25 17.4 °F 15.6 °F 1016.1 in Calm     89 % 0.0 in 0.0 W/m2 CLR
05:26 17.4 °F 15.6 °F 1016.1 in Calm     89 % 0.0 in 0.0 W/m2 CLR
05:30 17.4 °F 15.6 °F 1015.8 in Calm     89 % 0.0 in 0.0 W/m2 CLR
05:33 17.4 °F 15.7 °F 1015.8 in Calm     90 % 0.0 in 0.0 W/m2 CLR
05:35 17.4 °F 15.7 °F 1015.8 in Calm     90 % 0.0 in 0.0 W/m2 CLR
05:40 17.3 °F 15.5 °F 1015.8 in Calm     89 % 0.0 in 0.0 W/m2 CLR
05:45 17.3 °F 15.6 °F 1015.8 in Calm     90 % 0.0 in 0.0 W/m2 CLR
05:50 17.2 °F 15.6 °F 1015.8 in Calm     90 % 0.0 in 0.0 W/m2 CLR
05:55 17.2 °F 15.5 °F 1015.8 in Calm     90 % 0.0 in 0.0 W/m2 CLR
06:00 17.1 °F 15.4 °F 1015.8 in Calm     90 % 0.0 in 0.0 W/m2 CLR
06:05 17.1 °F 15.4 °F 1015.8 in Calm     90 % 0.0 in 0.0 W/m2 CLR
06:10 17.1 °F 15.4 °F 1016.1 in SSE 5.6 mph 5.6 mph 90 % 0.0 in 0.0 W/m2 CLR
06:15 16.9 °F 15.3 °F 1016.5 in SSE 18.5 mph 18.5 mph 90 % 0.0 in 0.0 W/m2 CLR
06:20 16.9 °F 15.4 °F 1016.5 in South 3.7 mph 3.7 mph 91 % 0.0 in 0.0 W/m2 CLR
06:25 17.0 °F 15.5 °F 1016.5 in SSW 6.4 mph 6.4 mph 91 % 0.0 in 0.0 W/m2 CLR
06:30 17.3 °F 15.8 °F 1016.5 in SSW 1.9 mph 1.9 mph 91 % 0.5 in 0.0 W/m2 RA
06:35 17.5 °F 15.8 °F 1015.8 in NW 8.0 mph 8.0 mph 90 % 0.8 in 0.0 W/m2 RA
06:40 17.4 °F 15.8 °F 1016.1 in Calm     90 % 0.8 in 0.0 W/m2
06:45 17.3 °F 15.7 °F 1016.1 in Calm     90 % 0.8 in 0.0 W/m2 CLR
06:50 17.3 °F 15.8 °F 1016.1 in Calm     91 % 0.8 in 0.0 W/m2 CLR
06:55 17.2 °F 15.7 °F 1016.1 in Calm     91 % 0.8 in 0.0 W/m2 CLR
07:00 17.2 °F 15.7 °F 1016.1 in Calm     91 % 0.8 in 0.0 W/m2 CLR
07:05 17.1 °F 15.6 °F 1016.1 in Calm     91 % 0.8 in 0.0 W/m2 CLR
07:10 17.1 °F 15.6 °F 1016.1 in Calm     91 % 0.8 in 0.0 W/m2 CLR
07:15 17.1 °F 15.8 °F 1016.5 in Calm     92 % 0.8 in 0.0 W/m2 OVC
07:20 17.2 °F 15.8 °F 1016.5 in Calm     92 % 0.8 in 0.0 W/m2 OVC
07:25 17.1 °F 15.8 °F 1016.8 in Calm     92 % 0.8 in 7.0 W/m2 BKN
07:30 17.1 °F 15.8 °F 1017.2 in South 1.9 mph 1.9 mph 92 % 0.3 in 7.0 W/m2 BKN
07:35 17.1 °F 15.8 °F 1017.2 in South 1.9 mph   92 % 0.0 in 14.0 W/m2 BKN
07:40 17.2 °F 15.8 °F 1016.8 in Calm     92 % 0.0 in 30.0 W/m2 BKN
07:45 17.2 °F 15.9 °F 1016.5 in Calm     92 % 0.0 in 35.0 W/m2 BKN
07:50 17.3 °F 16.0 °F 1016.5 in Calm     92 % 0.0 in 35.0 W/m2 BKN
07:55 17.3 °F 16.0 °F 1016.5 in Calm     92 % 0.0 in 42.0 W/m2 BKN
08:00 17.4 °F 16.1 °F 1016.5 in Calm     92 % 0.0 in 53.0 W/m2 SCT
08:05 17.4 °F 16.1 °F 1016.5 in Calm     92 % 0.0 in 74.0 W/m2 FEW
08:10 17.5 °F 16.2 °F 1016.5 in Calm     92 % 0.0 in 88.0 W/m2 CLR
08:11 17.5 °F 16.2 °F 1016.8 in Calm     92 % 0.0 in 90.0 W/m2 CLR
08:16 17.7 °F 16.3 °F 1016.8 in Calm     92 % 0.0 in 91.0 W/m2 CLR
08:21 17.7 °F 16.4 °F 1016.8 in Calm     92 % 0.0 in 54.0 W/m2 SCT
08:26 17.8 °F 16.4 °F 1016.8 in Calm     92 % 0.0 in 53.0 W/m2 SCT
08:31 17.9 °F 16.6 °F 1016.5 in Calm     92 % 0.0 in 47.0 W/m2 SCT
08:36 17.9 °F 16.6 °F 1016.5 in Calm     92 % 0.0 in 58.0 W/m2 SCT
08:41 17.9 °F 16.4 °F 1016.5 in Calm     91 % 0.0 in 67.0 W/m2 SCT
08:46 17.8 °F 16.3 °F 1016.5 in Calm     91 % 0.0 in 46.0 W/m2 SCT
08:51 17.9 °F 16.4 °F 1016.5 in Calm     91 % 0.0 in 40.0 W/m2 SCT
08:56 17.9 °F 16.4 °F 1016.8 in Calm     91 % 0.0 in 63.0 W/m2 BKN
09:01 17.9 °F 16.4 °F 1016.5 in Calm     91 % 0.0 in 107.0 W/m2 SCT
09:06 18.1 °F 16.6 °F 1016.8 in Calm     91 % 0.0 in 120.0 W/m2 CLR
09:16 18.3 °F 16.8 °F 1016.8 in Calm     91 % 0.0 in 151.0 W/m2 CLR
09:21 18.3 °F 16.8 °F 1017.2 in Calm     91 % 0.0 in 165.0 W/m2 CLR
09:26 18.5 °F 17.0 °F 1016.8 in Calm     91 % 0.0 in 181.0 W/m2 CLR
09:31 18.7 °F 17.2 °F 1017.2 in Calm     91 % 0.0 in 243.0 W/m2 CLR
09:36 18.9 °F 17.2 °F 1017.2 in Calm     90 % 0.0 in 424.0 W/m2 CLR
09:41 19.2 °F 17.3 °F 1017.2 in Calm     89 % 0.0 in 397.0 W/m2 CLR
09:46 19.4 °F 17.4 °F 1017.5 in Calm     88 % 0.0 in 380.0 W/m2 CLR
09:51 19.6 °F 17.2 °F 1017.2 in Calm     86 % 0.0 in 387.0 W/m2 CLR
09:56 19.8 °F 17.2 °F 1017.2 in Calm     85 % 0.0 in 403.0 W/m2 CLR
10:01 20.2 °F 17.6 °F 1017.5 in Calm     85 % 0.0 in 415.0 W/m2 CLR
10:06 20.4 °F 17.7 °F 1017.2 in Calm     84 % 0.0 in 432.0 W/m2 CLR
10:11 20.7 °F 17.9 °F 1017.2 in Calm     84 % 0.0 in 448.0 W/m2 CLR
10:16 20.9 °F 17.8 °F 1017.2 in Calm     82 % 0.0 in 455.0 W/m2 CLR
10:21 21.0 °F 17.6 °F 1017.2 in NNE 4.8 mph 4.8 mph 81 % 0.0 in 482.0 W/m2 CLR
10:26 21.0 °F 17.6 °F 1017.2 in North 3.2 mph 3.2 mph 81 % 0.0 in 508.0 W/m2 CLR
10:31 21.2 °F 17.6 °F 1017.2 in NNW 5.6 mph 5.6 mph 80 % 0.0 in 526.0 W/m2 CLR
10:36 21.4 °F 18.0 °F 1017.2 in NNW 7.4 mph 7.4 mph 81 % 0.0 in 540.0 W/m2 CLR
10:41 21.5 °F 17.7 °F 1017.2 in North 5.6 mph   79 % 0.0 in 541.0 W/m2 CLR
10:46 21.7 °F 18.1 °F 1017.2 in NNW 5.6 mph 5.6 mph 80 % 0.0 in 591.0 W/m2 CLR
10:51 21.7 °F 17.9 °F 1017.5 in Calm     79 % 0.0 in 485.0 W/m2 CLR
10:56 21.8 °F 17.8 °F 1017.5 in NNE 3.7 mph 3.7 mph 78 % 0.0 in 661.0 W/m2 CLR
11:01 22.0 °F 18.0 °F 1017.5 in Calm     78 % 0.0 in 526.0 W/m2 CLR
11:06 22.3 °F 18.3 °F 1017.5 in Calm     78 % 0.0 in 584.0 W/m2 CLR
11:11 22.4 °F 18.0 °F 1017.5 in NW 3.7 mph   76 % 0.0 in 399.0 W/m2 CLR
11:16 22.4 °F 17.7 °F 1017.5 in Calm     75 % 0.0 in 223.0 W/m2 CLR
11:21 22.3 °F 17.8 °F 1017.5 in Calm     76 % 0.0 in 315.0 W/m2 CLR
11:26 22.3 °F 17.6 °F 1017.5 in Calm     75 % 0.0 in 292.0 W/m2 CLR
11:31 22.3 °F 17.6 °F 1017.2 in Calm     75 % 0.0 in 281.0 W/m2 CLR
11:36 22.3 °F 18.1 °F 1017.2 in NW 1.9 mph 1.9 mph 77 % 0.0 in 234.0 W/m2 CLR
11:41 22.3 °F 18.1 °F 1016.8 in Calm     77 % 0.0 in 220.0 W/m2 CLR
11:46 22.2 °F 18.0 °F 1017.2 in NW 5.6 mph 5.6 mph 77 % 0.0 in 220.0 W/m2 CLR
11:52 22.2 °F 18.0 °F 1017.2 in North 7.4 mph 7.4 mph 77 % 0.0 in 232.0 W/m2 CLR
11:56 22.1 °F 17.8 °F 1017.2 in NNW 5.6 mph 5.6 mph 77 % 0.0 in 258.0 W/m2 CLR
12:02 22.1 °F 17.8 °F 1017.2 in Calm     77 % 0.0 in 318.0 W/m2 CLR
12:07 22.2 °F 17.9 °F 1017.2 in Calm     77 % 0.0 in 329.0 W/m2 CLR
12:12 22.3 °F 18.1 °F 1017.2 in Calm     77 % 0.0 in 434.0 W/m2 CLR
12:17 22.4 °F 18.0 °F 1017.5 in North 6.4 mph 6.4 mph 76 % 0.0 in 396.0 W/m2 CLR
12:22 22.5 °F 18.1 °F 1017.5 in Calm     76 % 0.0 in 659.0 W/m2 CLR
12:27 22.8 °F 18.2 °F 1017.2 in NNW 5.6 mph 5.6 mph 75 % 0.0 in 744.0 W/m2 CLR
12:32 23.1 °F 18.0 °F 1017.2 in Calm     73 % 0.0 in 768.0 W/m2 CLR
12:37 23.4 °F 18.1 °F 1017.2 in NW 3.2 mph 3.4 mph 72 % 0.0 in 403.0 W/m2 CLR
12:42 23.6 °F 18.2 °F 1016.8 in Calm     72 % 0.0 in 487.0 W/m2 CLR
12:47 23.7 °F 17.9 °F 1016.8 in Calm     70 % 0.0 in 490.0 W/m2 CLR
12:52 23.8 °F 17.7 °F 1016.8 in WNW 5.6 mph 5.6 mph 69 % 0.0 in 526.0 W/m2 CLR
12:57 23.7 °F 17.9 °F 1016.5 in West 5.6 mph 5.6 mph 70 % 0.0 in 513.0 W/m2 CLR
13:02 23.7 °F 17.9 °F 1016.5 in West 1.9 mph 1.9 mph 70 % 0.0 in 445.0 W/m2 CLR
13:07 23.8 °F 18.1 °F 1016.5 in North 5.6 mph 5.6 mph 70 % 0.0 in 457.0 W/m2 CLR
13:12 24.0 °F 18.2 °F 1016.1 in WNW 5.6 mph 5.6 mph 70 % 0.0 in 348.0 W/m2 CLR
13:17 23.9 °F 18.1 °F 1016.1 in Calm     70 % 0.0 in 311.0 W/m2 CLR
13:22 23.9 °F 18.1 °F 1016.1 in WNW 6.4 mph 6.4 mph 70 % 0.0 in 297.0 W/m2 CLR
13:27 23.9 °F 18.4 °F 1016.1 in NW 14.8 mph 14.8 mph 71 % 0.0 in 262.0 W/m2 CLR
13:32 23.9 °F 18.4 °F 1016.1 in NW 9.3 mph 9.3 mph 71 % 0.0 in 195.0 W/m2 CLR
13:37 23.9 °F 18.3 °F 1015.8 in West 5.6 mph 5.6 mph 71 % 0.0 in 156.0 W/m2 CLR
13:42 23.8 °F 18.3 °F 1016.1 in Calm     71 % 0.0 in 153.0 W/m2 CLR
13:47 23.8 °F 18.1 °F 1016.1 in Calm     70 % 0.0 in 113.0 W/m2 CLR
13:52 23.8 °F 18.3 °F 1016.1 in Calm     71 % 0.0 in 79.0 W/m2 CLR
13:57 23.7 °F 18.2 °F 1015.8 in NW 9.7 mph 9.7 mph 71 % 0.0 in 60.0 W/m2 FEW
14:02 23.7 °F 18.3 °F 1015.8 in NNW 6.4 mph 6.4 mph 72 % 0.0 in 56.0 W/m2 SCT
14:07 23.6 °F 18.2 °F 1016.5 in NNW 5.6 mph 5.6 mph 72 % 0.0 in 54.0 W/m2 SCT
14:12 23.6 °F 18.4 °F 1016.5 in NNW 5.6 mph 5.6 mph 73 % 0.0 in 51.0 W/m2 SCT
14:17 23.5 °F 18.4 °F 1016.5 in Calm     73 % 0.0 in 53.0 W/m2 SCT
14:54 23.9 °F 18.1 °F 1016.1 in Calm     70 % 0.0 in 153.0 W/m2 CLR
14:59 24.0 °F 18.4 °F 1016.1 in Calm     71 % 0.0 in 171.0 W/m2 CLR
15:04 24.1 °F 18.5 °F 1016.1 in Calm     71 % 0.0 in 288.0 W/m2 CLR
15:09 24.3 °F 18.4 °F 1016.1 in Calm     70 % 0.0 in 294.0 W/m2 CLR
15:14 24.4 °F 18.6 °F 1015.8 in Calm     70 % 0.0 in 294.0 W/m2 CLR
15:19 24.6 °F 18.7 °F 1015.5 in North 1.9 mph   70 % 0.0 in 253.0 W/m2 CLR
15:24 24.7 °F 18.7 °F 1015.5 in Calm     69 % 0.0 in 206.0 W/m2 CLR
15:29 24.8 °F 18.5 °F 1015.5 in Calm     68 % 0.0 in 195.0 W/m2 CLR
15:34 24.9 °F 18.6 °F 1015.5 in NNE 1.9 mph   68 % 0.0 in 207.0 W/m2 CLR
15:39 25.0 °F 18.4 °F 1015.5 in NE 5.6 mph 5.6 mph 67 % 0.0 in 206.0 W/m2 CLR
15:44 25.2 °F 18.4 °F 1015.8 in NE 1.9 mph   66 % 0.0 in 171.0 W/m2 CLR
15:49 25.3 °F 18.2 °F 1015.8 in Calm     65 % 0.0 in 121.0 W/m2 CLR
15:54 25.3 °F 18.5 °F 1015.5 in Calm     66 % 0.0 in 90.0 W/m2 CLR
15:57 25.4 °F 18.3 °F 1015.5 in Calm     65 % 0.0 in 83.0 W/m2 CLR
16:02 25.4 °F 18.4 °F 1015.5 in North 7.4 mph 7.4 mph 65 % 0.0 in 77.0 W/m2 FEW
16:07 25.7 °F 18.3 °F 1015.5 in Calm     64 % 0.0 in 84.0 W/m2 FEW
16:12 25.9 °F 17.8 °F 1015.5 in ESE 22.2 mph 22.2 mph 61 % 0.0 in 90.0 W/m2 FEW
16:17 26.2 °F 16.7 °F 1015.1 in ESE 42.6 mph 42.6 mph 56 % 0.0 in 83.0 W/m2 CLR
16:22 26.2 °F 16.2 °F 1014.8 in East 27.4 mph 27.4 mph 54 % 0.0 in 69.0 W/m2 FEW
16:23 26.2 °F 15.6 °F 1014.8 in SE 29.6 mph 29.6 mph 52 % 0.0 in 65.0 W/m2 FEW
16:28 26.1 °F 15.2 °F 1015.1 in SE 37.0 mph 37.0 mph 51 % 0.0 in 54.0 W/m2 FEW
16:33 25.8 °F 15.5 °F 1015.8 in SE 33.3 mph 33.3 mph 53 % 0.0 in 63.0 W/m2 SCT
16:38 25.3 °F 15.7 °F 1015.8 in SSE 25.9 mph 25.9 mph 55 % 0.0 in 70.0 W/m2 SCT
16:43 25.2 °F 15.2 °F 1015.8 in SSE 25.9 mph 25.9 mph 54 % 0.0 in 58.0 W/m2 FEW
16:48 25.2 °F 14.9 °F 1015.8 in ESE 24.1 mph 24.1 mph 53 % 0.0 in 63.0 W/m2 SCT
16:53 25.3 °F 15.0 °F 1016.1 in SE 29.6 mph 29.6 mph 53 % 0.0 in 81.0 W/m2 FEW
16:58 25.3 °F 14.7 °F 1016.1 in SE 27.8 mph 27.8 mph 52 % 0.0 in 104.0 W/m2 FEW
17:03 25.2 °F 14.4 °F 1016.1 in SE 31.5 mph 31.5 mph 51 % 0.0 in 95.0 W/m2 CLR
17:08 25.2 °F 14.3 °F 1016.1 in SE 27.8 mph 27.8 mph 51 % 0.0 in 70.0 W/m2 CLR
17:13 25.1 °F 14.6 °F 1016.1 in ESE 24.1 mph 24.1 mph 52 % 0.0 in 63.0 W/m2 FEW
17:18 24.9 °F 14.7 °F 1016.1 in SE 31.5 mph 31.5 mph 53 % 0.0 in 79.0 W/m2 FEW
17:23 24.8 °F 14.6 °F 1015.8 in ESE 24.1 mph 24.1 mph 53 % 0.0 in 109.0 W/m2 FEW
17:28 24.8 °F 14.6 °F 1015.8 in East 31.5 mph 31.5 mph 53 % 0.0 in 105.0 W/m2 CLR
17:33 25.1 °F 14.6 °F 1015.8 in East 46.3 mph 46.3 mph 52 % 0.0 in 90.0 W/m2 CLR
17:43 25.3 °F 14.2 °F 1015.5 in SE 27.8 mph 27.8 mph 50 % 0.0 in 74.0 W/m2 FEW
17:48 25.3 °F 14.4 °F 1015.5 in ESE 16.7 mph 16.7 mph 51 % 0.0 in 67.0 W/m2 FEW
17:53 25.3 °F 13.8 °F 1015.5 in East 22.2 mph 22.2 mph 49 % 0.0 in 42.0 W/m2 SCT
17:58 25.2 °F 13.7 °F 1015.1 in East 37.0 mph 37.0 mph 49 % 0.0 in 53.0 W/m2 SCT
18:03 24.9 °F 13.8 °F 1015.1 in ESE 40.7 mph 40.7 mph 50 % 0.0 in 90.0 W/m2 SCT
18:08 24.7 °F 13.6 °F 1015.1 in ESE 37.0 mph 37.0 mph 50 % 0.0 in 65.0 W/m2 FEW
18:13 24.8 °F 13.0 °F 1015.1 in ESE 40.7 mph 40.7 mph 48 % 0.0 in 40.0 W/m2 FEW
18:18 24.9 °F 12.1 °F 1015.1 in ESE 46.3 mph 46.3 mph 45 % 0.0 in 44.0 W/m2 SCT
18:57 23.9 °F 12.3 °F 1015.8 in SSE 51.8 mph 51.8 mph 48 % 0.0 in 30.0 W/m2 OVC
19:02 23.3 °F 11.7 °F 1016.1 in SE 22.2 mph 22.2 mph 48 % 0.0 in 16.0 W/m2 BKN
19:07 23.3 °F 12.0 °F 1016.5 in SE 20.4 mph 20.4 mph 49 % 0.0 in 14.0 W/m2 BKN
19:08 23.3 °F 12.0 °F 1016.5 in SE 24.1 mph 24.1 mph 49 % 0.0 in 14.0 W/m2 BKN
19:13 23.3 °F 12.3 °F 1016.8 in ESE 27.8 mph 27.8 mph 50 % 0.0 in 7.0 W/m2 BKN
19:14 23.3 °F 12.3 °F 1016.8 in SE 27.8 mph 27.8 mph 50 % 0.0 in 7.0 W/m2 BKN
19:26 21.1 °F 13.1 °F 1017.5 in SE 32.2 mph 32.2 mph 60 % 0.0 in 33.0 W/m2 BKN
19:27 21.1 °F 13.1 °F 1017.5 in SE 29.6 mph 29.6 mph 60 % 0.0 in 30.0 W/m2 BKN
19:32 20.0 °F 13.2 °F 1017.5 in SE 22.2 mph 22.2 mph 65 % 0.3 in 11.0 W/m2 RA
19:37 19.4 °F 13.2 °F 1017.5 in SE 14.8 mph 14.8 mph 67 % 0.3 in 14.0 W/m2 BKN
20:23 18.3 °F 14.0 °F 1017.5 in Calm     76 % 0.3 in 0.0 W/m2 OVC
20:28 18.3 °F 13.2 °F 1017.8 in SE 13.0 mph 13.0 mph 72 % 0.3 in 0.0 W/m2 OVC
20:33 18.3 °F 12.8 °F 1017.5 in SSE 1.6 mph   70 % 0.3 in 0.0 W/m2 OVC
20:38 18.3 °F 12.3 °F 1017.5 in Calm     68 % 0.3 in 0.0 W/m2 OVC
20:43 18.3 °F 12.8 °F 1017.5 in Calm     70 % 0.3 in 0.0 W/m2 OVC
20:48 18.3 °F 12.3 °F 1017.8 in Calm     68 % 0.3 in 0.0 W/m2 CLR
20:53 18.3 °F 11.9 °F 1017.5 in East 14.8 mph 14.8 mph 66 % 0.3 in 0.0 W/m2 CLR
20:58 19.4 °F 11.9 °F 1017.5 in ESE 18.5 mph 18.5 mph 62 % 0.3 in 0.0 W/m2 CLR
21:04 20.0 °F 12.5 °F 1017.5 in East 18.5 mph 18.5 mph 62 % 0.5 in 0.0 W/m2 RA
21:09 19.4 °F 11.5 °F 1017.5 in East 29.0 mph 29.0 mph 60 % 0.5 in 0.0 W/m2
21:14 19.4 °F 11.7 °F 1017.5 in East 33.3 mph 33.3 mph 61 % 0.3 in 0.0 W/m2 CLR
21:19 19.4 °F 12.4 °F 1017.5 in East 31.5 mph 31.5 mph 64 % 0.3 in 0.0 W/m2 CLR
21:24 20.0 °F 12.7 °F 1017.5 in SE 37.0 mph 37.0 mph 63 % 0.3 in 0.0 W/m2 CLR
21:29 20.6 °F 13.3 °F 1017.5 in ESE 31.5 mph 31.5 mph 63 % 0.3 in 0.0 W/m2 CLR
21:34 20.6 °F 13.0 °F 1017.5 in ESE 16.7 mph 16.7 mph 62 % 0.3 in 0.0 W/m2 CLR
21:39 20.6 °F 12.5 °F 1017.2 in East 38.9 mph 38.9 mph 60 % 0.3 in 0.0 W/m2 CLR
21:44 20.6 °F 12.5 °F 1016.8 in ESE 35.2 mph 35.2 mph 60 % 0.3 in 0.0 W/m2 CLR
21:49 20.6 °F 12.5 °F 1016.8 in ESE 29.6 mph 29.6 mph 60 % 0.3 in 0.0 W/m2 CLR
21:54 20.6 °F 12.8 °F 1016.8 in ESE 18.5 mph 18.5 mph 61 % 0.3 in 0.0 W/m2 CLR
21:59 20.6 °F 12.3 °F 1016.5 in ENE 27.8 mph 27.8 mph 59 % 0.3 in 0.0 W/m2 CLR
22:04 20.6 °F 12.5 °F 1016.5 in ESE 29.6 mph 29.6 mph 60 % 0.0 in 0.0 W/m2 CLR
22:09 20.6 °F 12.5 °F 1016.5 in ESE 37.0 mph 37.0 mph 60 % 0.0 in 0.0 W/m2 CLR
22:14 20.6 °F 12.3 °F 1016.5 in ESE 35.2 mph 35.2 mph 59 % 0.0 in 0.0 W/m2 CLR
22:19 21.1 °F 12.8 °F 1016.5 in ESE 44.4 mph 44.4 mph 59 % 0.0 in 0.0 W/m2 CLR
22:24 20.6 °F 12.5 °F 1016.1 in ESE 37.0 mph 37.0 mph 60 % 0.0 in 0.0 W/m2 CLR
22:29 20.0 °F 12.5 °F 1016.1 in ESE 31.5 mph 31.5 mph 62 % 0.0 in 0.0 W/m2 CLR
22:34 20.0 °F 12.7 °F 1016.1 in East 31.5 mph 31.5 mph 63 % 0.0 in 0.0 W/m2 CLR
22:39 20.0 °F 12.5 °F 1016.1 in ESE 27.8 mph 27.8 mph 62 % 0.0 in 0.0 W/m2 CLR
22:44 19.4 °F 12.2 °F 1016.1 in East 20.4 mph 20.4 mph 63 % 0.0 in 0.0 W/m2 CLR
22:49 19.4 °F 12.4 °F 1015.8 in East 24.1 mph 24.1 mph 64 % 0.0 in 0.0 W/m2 CLR
22:54 19.4 °F 12.7 °F 1015.8 in SE 11.1 mph 11.1 mph 65 % 0.0 in 0.0 W/m2 CLR
22:59 19.4 °F 12.7 °F 1015.8 in ESE 18.5 mph 18.5 mph 65 % 0.0 in 0.0 W/m2 CLR
23:04 20.0 °F 13.4 °F 1015.8 in ESE 13.0 mph 13.0 mph 66 % 0.0 in 0.0 W/m2 CLR
23:09 20.6 °F 14.0 °F 1015.8 in ESE 18.5 mph 18.5 mph 66 % 0.0 in 0.0 W/m2 CLR
23:10 20.6 °F 14.0 °F 1015.8 in ESE 16.7 mph 16.7 mph 66 % 0.0 in 0.0 W/m2 CLR
23:15 20.6 °F 14.0 °F 1015.8 in East 14.8 mph 14.8 mph 66 % 0.0 in 0.0 W/m2 CLR
23:20 20.6 °F 13.7 °F 1016.1 in ESE 5.6 mph 5.6 mph 65 % 0.0 in 0.0 W/m2 CLR
23:25 20.6 °F 13.7 °F 1016.1 in Calm     65 % 0.0 in 0.0 W/m2 CLR
23:30 20.0 °F 13.9 °F 1016.1 in Calm     68 % 0.0 in 0.0 W/m2 CLR
23:35 20.0 °F 13.9 °F 1016.1 in Calm     68 % 0.0 in 0.0 W/m2 CLR
23:40 19.4 °F 13.2 °F 1016.1 in Calm     67 % 0.0 in 0.0 W/m2 CLR
23:45 18.9 °F 12.4 °F 1016.5 in Calm     66 % 0.0 in 0.0 W/m2 CLR
23:50 18.9 °F 12.2 °F 1016.1 in SE 14.8 mph 14.8 mph 65 % 0.0 in 0.0 W/m2 CLR
23:55 18.9 °F 11.9 °F 1016.5 in Calm     64 % 0.0 in 0.0 W/m2 CLR
23:56 18.9 °F 12.2 °F 1016.5 in Calm     65 % 0.0 in 0.0 W/m2 CLR
Lo Temps de Massalio
Compliments of Weather Underground - 1.25 mb